Time;durP1;ratioP1;P1;durP2;ratioP2;P2;SDS_P1;SDS_P2;PMS_P1;PMS_P2;Temp;Humidity;BMP_temperature;BMP_pressure;BME280_temperature;BME280_humidity;BME280_pressure;Samples;Min_cycle;Max_cycle;Signal;HPM_P1;HPM_P2
2023/01/12 00:02:10;;;;;;;7.20;2.53;;;;;7.30;96564.00;;;;8267458;28;20238;-70
2023/01/12 00:06:18;;;;;;;17.87;3.03;;;;;7.30;96566.00;;;;8268386;28;20238;-70
2023/01/12 00:10:22;;;;;;;7.27;2.40;;;;;7.30;96561.00;;;;8268367;28;20306;-69
2023/01/12 00:14:26;;;;;;;9.20;3.20;;;;;7.20;96538.00;;;;8266580;28;20540;-69
2023/01/12 00:18:29;;;;;;;17.00;2.70;;;;;7.10;96534.00;;;;8267942;28;20205;-70
2023/01/12 00:22:34;;;;;;;12.23;2.23;;;;;6.90;96539.00;;;;8267076;28;20199;-70
2023/01/12 00:26:37;;;;;;;13.50;2.43;;;;;6.80;96542.00;;;;8267781;28;20690;-69
2023/01/12 00:30:40;;;;;;;13.07;2.17;;;;;6.80;96543.00;;;;8267277;28;20304;-69
2023/01/12 00:34:43;;;;;;;14.40;2.60;;;;;6.80;96530.00;;;;8267572;28;20201;-69
2023/01/12 00:38:48;;;;;;;11.60;2.03;;;;;6.80;96532.00;;;;8267167;28;20202;-70
2023/01/12 00:47:13;;;;;;;19.63;2.47;;;;;6.60;96532.00;;;;8266531;28;20199;-70
2023/01/12 00:51:16;;;;;;;15.20;2.63;;;;;6.50;96536.00;;;;8266457;28;20218;-69
2023/01/12 00:55:24;;;;;;;12.10;2.53;;;;;6.40;96541.00;;;;8266799;28;20632;-69
2023/01/12 00:59:30;;;;;;;9.60;2.30;;;;;6.50;96547.00;;;;8266687;28;20617;-69
2023/01/12 01:03:35;;;;;;;18.27;3.37;;;;;6.50;96549.00;;;;8266266;28;20229;-69
2023/01/12 01:07:39;;;;;;;5.47;2.27;;;;;6.50;96549.00;;;;8266474;28;20198;-69
2023/01/12 01:11:46;;;;;;;14.53;2.33;;;;;6.40;96554.00;;;;8266121;28;20227;-69
2023/01/12 01:15:51;;;;;;;7.10;2.33;;;;;6.40;96560.00;;;;8266002;28;20210;-69
2023/01/12 01:20:00;;;;;;;13.53;2.47;;;;;6.40;96556.00;;;;8265701;28;20198;-69
2023/01/12 01:24:04;;;;;;;10.50;2.30;;;;;6.40;96570.00;;;;8266369;28;20199;-70
2023/01/12 01:28:10;;;;;;;9.37;2.23;;;;;6.40;96575.00;;;;8265996;28;20256;-69
2023/01/12 01:32:17;;;;;;;25.60;3.50;;;;;6.40;96576.00;;;;8265923;28;20269;-69
2023/01/12 01:36:23;;;;;;;15.80;2.40;;;;;6.50;96569.00;;;;8265794;28;20194;-69
2023/01/12 01:40:26;;;;;;;11.70;2.27;;;;;6.50;96576.00;;;;8266963;28;20540;-70
2023/01/12 01:44:53;;;;;;;4.37;1.73;;;;;6.60;96569.00;;;;8265827;28;20191;-69
2023/01/12 01:49:10;;;;;;;9.30;1.90;;;;;6.70;96562.00;;;;8262683;28;20284;-69
2023/01/12 01:53:19;;;;;;;8.87;1.87;;;;;6.70;96576.00;;;;8266063;28;20269;-69
2023/01/12 01:57:26;;;;;;;5.63;1.90;;;;;6.70;96577.00;;;;8265860;28;20253;-70
2023/01/12 02:01:31;;;;;;;10.73;2.00;;;;;6.80;96567.00;;;;8266611;28;20214;-70
2023/01/12 02:05:36;;;;;;;6.17;2.03;;;;;6.80;96571.00;;;;8268670;28;20230;-69
2023/01/12 02:09:44;;;;;;;6.63;2.13;;;;;6.90;96563.00;;;;8270443;28;20209;-69
2023/01/12 02:18:17;;;;;;;7.57;2.10;;;;;6.90;96574.00;;;;8269956;28;20250;-69
2023/01/12 02:22:54;;;;;;;10.33;2.23;;;;;7.00;96575.00;;;;8271058;28;20229;-69
2023/01/12 02:27:36;;;;;;;11.80;2.00;;;;;7.00;96564.00;;;;8270673;28;20241;-69
2023/01/12 02:31:52;;;;;;;9.77;1.90;;;;;7.00;96554.00;;;;8272462;28;20227;-69
2023/01/12 02:36:02;;;;;;;4.47;1.63;;;;;7.00;96550.00;;;;8269997;28;20199;-69
2023/01/12 02:40:11;;;;;;;7.70;1.80;;;;;7.10;96552.00;;;;8271080;28;20195;-69
2023/01/12 02:44:23;;;;;;;4.90;1.70;;;;;7.10;96550.00;;;;8270821;28;20632;-69
2023/01/12 02:48:32;;;;;;;10.13;2.10;;;;;7.10;96556.00;;;;8270829;28;20588;-70
2023/01/12 02:52:36;;;;;;;5.60;1.97;;;;;7.10;96558.00;;;;8269828;28;20222;-70
2023/01/12 02:56:42;;;;;;;2.93;1.27;;;;;7.00;96551.00;;;;8270062;28;20198;-70
2023/01/12 03:00:48;;;;;;;6.40;1.87;;;;;7.00;96546.00;;;;8270564;28;20198;-70
2023/01/12 03:04:52;;;;;;;9.83;1.80;;;;;7.00;96534.00;;;;8247770;23;20243;-79
2023/01/12 03:08:55;;;;;;;6.30;2.30;;;;;6.90;96536.00;;;;8226540;28;20239;-75
2023/01/12 03:13:06;;;;;;;7.83;2.03;;;;;6.90;96531.00;;;;8224482;28;20224;-71
2023/01/12 03:17:16;;;;;;;10.40;2.70;;;;;6.80;96521.00;;;;8221920;28;20195;-71
2023/01/12 03:21:28;;;;;;;5.53;2.40;;;;;6.60;96517.00;;;;8220345;28;20232;-71
2023/01/12 03:25:36;;;;;;;2.47;2.10;;;;;6.50;96519.00;;;;8223012;28;20693;-76
2023/01/12 03:29:44;;;;;;;8.27;2.60;;;;;6.40;96517.00;;;;8224038;28;20203;-79
2023/01/12 03:33:48;;;;;;;6.10;2.10;;;;;6.40;96503.00;;;;8220274;28;20251;-74
2023/01/12 03:38:00;;;;;;;8.93;2.20;;;;;6.40;96510.00;;;;8216333;28;20259;-70
2023/01/12 03:42:09;;;;;;;4.93;2.00;;;;;6.30;96506.00;;;;8218782;28;20199;-75
2023/01/12 03:46:21;;;;;;;7.70;2.47;;;;;6.20;96498.00;;;;8216559;28;20357;-74
2023/01/12 03:50:31;;;;;;;6.17;2.10;;;;;6.10;96506.00;;;;8216663;28;20204;-76
2023/01/12 03:54:42;;;;;;;3.63;2.17;;;;;6.00;96499.00;;;;8217840;28;20199;-75
2023/01/12 03:58:48;;;;;;;9.87;2.20;;;;;5.90;96490.00;;;;8210930;28;20258;-74
2023/01/12 04:03:03;;;;;;;6.00;2.43;;;;;5.80;96493.00;;;;8207007;28;20278;-70
2023/01/12 04:07:06;;;;;;;8.50;2.77;;;;;5.70;96487.00;;;;8194266;28;20834;-78
2023/01/12 04:15:35;;;;;;;5.77;2.13;;;;;5.60;96484.00;;;;8197981;28;20229;-73
2023/01/12 04:19:41;;;;;;;7.70;2.43;;;;;5.50;96488.00;;;;8195848;28;20204;-71
2023/01/12 04:23:52;;;;;;;8.90;2.27;;;;;5.40;96485.00;;;;8192685;28;20204;-70
2023/01/12 04:27:59;;;;;;;10.67;3.37;;;;;5.40;96492.00;;;;8195134;28;20202;-73
2023/01/12 04:32:03;;;;;;;6.47;2.27;;;;;5.30;96491.00;;;;8203869;28;20653;-79
2023/01/12 04:36:10;;;;;;;6.37;2.50;;;;;5.20;96466.00;;;;8194782;28;20245;-77
2023/01/12 04:40:15;;;;;;;5.27;1.73;;;;;5.30;96464.00;;;;8195434;28;20195;-74
2023/01/12 04:44:19;;;;;;;4.23;2.07;;;;;5.30;96461.00;;;;8196729;28;20212;-75
2023/01/12 04:48:25;;;;;;;6.17;2.47;;;;;5.30;96440.00;;;;8200434;28;20202;-73
2023/01/12 04:52:37;;;;;;;9.17;2.50;;;;;5.40;96446.00;;;;8208632;28;20772;-73
2023/01/12 04:56:45;;;;;;;7.87;1.90;;;;;5.50;96449.00;;;;8205291;28;20266;-76
2023/01/12 05:00:56;;;;;;;11.70;1.93;;;;;5.50;96464.00;;;;8199933;28;20664;-75
2023/01/12 05:04:59;;;;;;;11.30;2.10;;;;;5.50;96461.00;;;;8209434;28;20238;-75
2023/01/12 05:13:26;;;;;;;8.10;1.97;;;;;5.60;96455.00;;;;8198441;28;20224;-76
2023/01/12 05:17:31;;;;;;;8.50;1.90;;;;;5.60;96454.00;;;;8219900;28;20971;-73
2023/01/12 05:21:35;;;;;;;5.53;2.10;;;;;5.60;96460.00;;;;8213586;28;20202;-80
2023/01/12 05:25:38;;;;;;;6.73;1.93;;;;;5.50;96452.00;;;;8212585;28;20214;-76
2023/01/12 05:29:41;;;;;;;7.17;2.03;;;;;5.40;96447.00;;;;8204103;28;20701;-79
2023/01/12 05:33:46;;;;;;;6.70;2.20;;;;;5.30;96459.00;;;;8201618;28;20229;-75
2023/01/12 05:37:49;;;;;;;8.10;2.17;;;;;5.30;96457.00;;;;8214760;28;20250;-80
2023/01/12 05:46:32;;;;;;;7.37;2.63;;;;;5.30;96449.00;;;;8107678;29;20258;-78
2023/01/12 05:50:45;;;;;;;9.47;2.07;;;;;5.40;96459.00;;;;8161721;28;20266;-80
2023/01/12 05:54:49;;;;;;;11.67;2.27;;;;;5.40;96451.00;;;;8201501;28;20233;-76
2023/01/12 05:58:54;;;;;;;11.43;1.90;;;;;5.50;96442.00;;;;8201229;28;20209;-78
2023/01/12 06:02:57;;;;;;;10.30;2.03;;;;;5.60;96448.00;;;;8198530;28;20240;-78
2023/01/12 06:07:02;;;;;;;12.47;2.30;;;;;5.60;96440.00;;;;8192664;28;20613;-73
2023/01/12 06:11:05;;;;;;;11.23;2.77;;;;;5.70;96445.00;;;;8196975;28;20255;-81
2023/01/12 06:15:09;;;;;;;6.83;1.77;;;;;5.70;96446.00;;;;8200497;28;20593;-74
2023/01/12 06:19:16;;;;;;;11.33;2.27;;;;;5.80;96444.00;;;;8201961;28;20206;-74
2023/01/12 06:23:21;;;;;;;12.77;2.27;;;;;5.70;96430.00;;;;8205066;28;20589;-77
2023/01/12 06:27:37;;;;;;;7.40;1.73;;;;;5.70;96430.00;;;;8201334;28;20207;-79
2023/01/12 06:31:42;;;;;;;10.40;2.40;;;;;5.70;96428.00;;;;8201605;28;20199;-81
2023/01/12 06:35:50;;;;;;;10.43;2.10;;;;;5.80;96438.00;;;;8203372;28;20215;-74
2023/01/12 06:39:56;;;;;;;2.27;2.03;;;;;5.80;96426.00;;;;8204845;28;20211;-74
2023/01/12 06:44:00;;;;;;;12.53;2.40;;;;;5.80;96422.00;;;;8207286;28;20426;-75
2023/01/12 06:48:04;;;;;;;3.10;1.73;;;;;5.80;96426.00;;;;8201554;28;20685;-76
2023/01/12 06:52:08;;;;;;;9.23;2.23;;;;;5.80;96439.00;;;;8203557;28;20231;-79
2023/01/12 06:56:17;;;;;;;5.63;1.60;;;;;5.90;96444.00;;;;8207925;28;20232;-74
2023/01/12 07:00:24;;;;;;;10.53;2.30;;;;;5.90;96437.00;;;;8201535;28;20195;-78
2023/01/12 07:04:28;;;;;;;11.87;3.13;;;;;5.90;96443.00;;;;8198531;28;20685;-74
2023/01/12 07:08:32;;;;;;;10.30;2.70;;;;;5.90;96436.00;;;;8200715;28;20208;-74
2023/01/12 07:12:37;;;;;;;8.83;1.93;;;;;5.90;96426.00;;;;8198155;28;20227;-73
2023/01/12 07:16:41;;;;;;;8.53;2.17;;;;;5.90;96420.00;;;;8209334;28;20212;-77
2023/01/12 07:20:44;;;;;;;12.77;2.40;;;;;6.00;96430.00;;;;8216564;28;20336;-79
2023/01/12 07:24:47;;;;;;;11.10;2.00;;;;;6.00;96414.00;;;;8221014;28;20207;-79
2023/01/12 07:28:52;;;;;;;4.17;1.87;;;;;6.10;96419.00;;;;8206954;28;20573;-79
2023/01/12 07:33:07;;;;;;;10.23;2.07;;;;;6.10;96420.00;;;;8198863;28;20234;-78
2023/01/12 07:37:12;;;;;;;11.13;1.93;;;;;6.20;96431.00;;;;8217346;28;20286;-76
2023/01/12 07:45:39;;;;;;;5.67;1.60;;;;;6.30;96428.00;;;;8218428;28;20569;-76
2023/01/12 07:49:42;;;;;;;5.77;1.10;;;;;6.40;96416.00;;;;8219364;28;20263;-83
2023/01/12 07:53:47;;;;;;;4.47;1.60;;;;;6.50;96418.00;;;;8191760;28;20298;-81
2023/01/12 07:57:57;;;;;;;11.30;2.07;;;;;6.50;96416.00;;;;8205841;28;20254;-78
2023/01/12 08:02:05;;;;;;;14.70;2.30;;;;;6.60;96410.00;;;;8197953;28;20287;-80
2023/01/12 08:06:09;;;;;;;6.73;1.70;;;;;6.60;96418.00;;;;8203683;28;20821;-79
2023/01/12 08:10:13;;;;;;;3.90;1.70;;;;;6.60;96416.00;;;;8194172;28;20200;-74
2023/01/12 08:14:26;;;;;;;3.97;1.60;;;;;6.70;96413.00;;;;8197842;28;20601;-81
2023/01/12 08:18:42;;;;;;;8.10;1.90;;;;;6.80;96401.00;;;;8204607;28;20222;-79
2023/01/12 08:22:47;;;;;;;4.30;1.97;;;;;6.80;96397.00;;;;8193657;28;20709;-78
2023/01/12 08:26:53;;;;;;;4.53;2.20;;;;;6.90;96394.00;;;;8195518;28;20673;-85
2023/01/12 08:30:58;;;;;;;8.63;2.10;;;;;6.90;96401.00;;;;8192051;28;20282;-77
2023/01/12 08:35:04;;;;;;;6.10;1.90;;;;;6.90;96404.00;;;;8191526;28;20228;-80
2023/01/12 08:39:07;;;;;;;8.53;1.87;;;;;7.00;96400.00;;;;8191196;28;20201;-77
2023/01/12 08:44:00;;;;;;;3.50;1.63;;;;;7.10;96400.00;;;;8194781;28;20206;-77
2023/01/12 08:47:43;;;;;;;6.40;1.70;;;;;7.20;96409.00;;;;8196838;28;20243;-79
2023/01/12 08:51:48;;;;;;;4.80;1.60;;;;;7.30;96410.00;;;;8196123;28;20204;-77
2023/01/12 08:55:52;;;;;;;6.27;1.93;;;;;7.40;96408.00;;;;8187318;28;20223;-81
2023/01/12 08:59:58;;;;;;;2.63;1.70;;;;;7.40;96409.00;;;;8193240;28;20203;-78
2023/01/12 09:04:01;;;;;;;7.03;2.00;;;;;7.50;96408.00;;;;8197457;28;20240;-75
2023/01/12 09:08:09;;;;;;;5.57;1.87;;;;;7.60;96411.00;;;;8191088;28;20645;-81
2023/01/12 09:12:16;;;;;;;7.57;2.30;;;;;7.60;96403.00;;;;8188402;28;20200;-77
2023/01/12 09:16:22;;;;;;;10.90;2.00;;;;;7.70;96397.00;;;;8208084;28;20685;-77
2023/01/12 09:20:28;;;;;;;8.83;2.00;;;;;7.90;96396.00;;;;8201029;28;20295;-78
2023/01/12 09:24:35;;;;;;;11.00;1.93;;;;;8.00;96390.00;;;;8201494;28;20235;-75
2023/01/12 09:28:38;;;;;;;3.27;1.80;;;;;8.10;96394.00;;;;8192263;28;20204;-73
2023/01/12 09:32:44;;;;;;;8.30;2.63;;;;;8.10;96403.00;;;;8208594;28;20859;-74
2023/01/12 09:36:51;;;;;;;5.07;2.10;;;;;8.10;96395.00;;;;8214995;28;20203;-79
2023/01/12 09:40:57;;;;;;;6.77;1.90;;;;;8.10;96398.00;;;;8209819;28;20210;-77
2023/01/12 09:49:38;;;;;;;2.20;1.50;;;;;8.30;96396.00;;;;8200822;28;20204;-75
2023/01/12 09:53:42;;;;;;;6.67;1.67;;;;;8.40;96388.00;;;;8191334;28;20336;-74
2023/01/12 09:58:17;;;;;;;6.90;1.83;;;;;8.50;96370.00;;;;8195243;28;20254;-78
2023/01/12 10:02:22;;;;;;;9.13;2.03;;;;;8.60;96384.00;;;;8196871;28;20705;-75
2023/01/12 10:06:26;;;;;;;7.43;1.90;;;;;8.70;96368.00;;;;8196080;28;20200;-81
2023/01/12 10:10:31;;;;;;;6.97;2.07;;;;;8.70;96389.00;;;;8199640;28;20243;-73
2023/01/12 10:15:06;;;;;;;7.23;1.70;;;;;8.80;96387.00;;;;8206440;28;20247;-83
2023/01/12 10:19:21;;;;;;;1.97;1.30;;;;;8.90;96381.00;;;;8212322;28;20200;-74
2023/01/12 10:23:29;;;;;;;6.17;1.63;;;;;8.90;96384.00;;;;8196806;28;20204;-80
2023/01/12 10:27:43;;;;;;;2.03;1.63;;;;;9.00;96380.00;;;;8223184;28;20208;-80
2023/01/12 10:31:48;;;;;;;6.80;1.67;;;;;9.10;96382.00;;;;8220516;28;20262;-76
2023/01/12 10:36:01;;;;;;;7.30;1.92;;;;;9.20;96385.00;;;;8204170;28;20232;-74
2023/01/12 10:40:20;;;;;;;3.63;1.60;;;;;9.40;96374.00;;;;8199115;28;20204;-79
2023/01/12 10:44:24;;;;;;;5.60;1.42;;;;;9.40;96365.00;;;;8215468;28;20205;-78
2023/01/12 10:48:32;;;;;;;7.33;1.70;;;;;9.40;96363.00;;;;8213036;28;20550;-76
2023/01/12 10:52:40;;;;;;;5.75;2.42;;;;;9.10;96359.00;;;;8220642;28;20200;-81
2023/01/12 10:56:54;;;;;;;2.47;1.30;;;;;8.60;96353.00;;;;8197846;28;20231;-75
2023/01/12 11:00:58;;;;;;;9.50;1.80;;;;;8.40;96349.00;;;;8192238;28;20279;-76
2023/01/12 11:05:25;;;;;;;5.25;1.80;;;;;8.30;96340.00;;;;8200681;28;20376;-76
2023/01/12 11:09:33;;;;;;;2.57;1.63;;;;;8.30;96321.00;;;;8193378;28;20240;-77
2023/01/12 11:13:38;;;;;;;5.35;1.55;;;;;8.40;96323.00;;;;8194882;28;20291;-80
2023/01/12 11:17:54;;;;;;;5.47;1.90;;;;;8.60;96307.00;;;;8191849;28;20207;-78
2023/01/12 11:22:08;;;;;;;2.23;1.60;;;;;8.60;96306.00;;;;8201763;28;20214;-78
2023/01/12 11:26:19;;;;;;;3.73;1.53;;;;;8.80;96289.00;;;;8199913;28;20220;-76
2023/01/12 11:30:26;;;;;;;4.63;1.60;;;;;8.90;96270.00;;;;8204135;28;20219;-78
2023/01/12 11:34:34;;;;;;;2.67;1.42;;;;;9.10;96280.00;;;;8197527;28;20227;-78
2023/01/12 11:38:42;;;;;;;4.60;1.43;;;;;9.30;96274.00;;;;8201856;28;20302;-79
2023/01/12 11:47:14;;;;;;;10.83;2.33;;;;;9.50;96258.00;;;;8200911;28;20213;-77
2023/01/12 11:51:22;;;;;;;6.03;1.73;;;;;9.50;96262.00;;;;8200779;28;20207;-76
2023/01/12 11:55:41;;;;;;;2.65;1.10;;;;;9.60;96256.00;;;;8197663;28;20297;-77
2023/01/12 11:59:54;;;;;;;1.50;1.00;;;;;9.70;96258.00;;;;8207734;28;20271;-77
2023/01/12 12:04:00;;;;;;;6.28;1.67;;;;;9.70;96246.00;;;;8191353;28;20244;-79
2023/01/12 12:08:17;;;;;;;7.88;1.85;;;;;9.80;96245.00;;;;8194186;28;20223;-78
2023/01/12 12:12:31;;;;;;;1.55;1.20;;;;;9.80;96253.00;;;;8189790;28;20272;-78
2023/01/12 12:16:43;;;;;;;3.15;1.52;;;;;9.70;96259.00;;;;8208472;28;20235;-80
2023/01/12 12:21:01;;;;;;;5.20;1.20;;;;;9.60;96251.00;;;;8203858;28;20199;-76
2023/01/12 12:25:21;;;;;;;7.17;1.77;;;;;9.20;96254.00;;;;8198890;28;20669;-79
2023/01/12 12:29:35;;;;;;;6.60;1.83;;;;;8.80;96248.00;;;;8196672;28;20850;-76
2023/01/12 12:34:02;;;;;;;2.77;1.80;;;;;8.50;96247.00;;;;8221439;28;20805;-77
2023/01/12 12:38:23;;;;;;;3.73;2.43;;;;;8.50;96233.00;;;;8209082;28;20203;-76
2023/01/12 12:47:09;;;;;;;10.10;5.53;;;;;8.80;96222.00;;;;8220515;28;20269;-78
2023/01/12 12:51:15;;;;;;;3.47;1.67;;;;;8.90;96222.00;;;;8208751;28;20844;-75
2023/01/12 12:55:20;;;;;;;3.67;2.23;;;;;9.00;96222.00;;;;8204354;28;20622;-81
2023/01/12 12:59:55;;;;;;;7.00;3.23;;;;;9.00;96228.00;;;;8193550;28;20211;-77
2023/01/12 13:04:02;;;;;;;7.78;2.53;;;;;9.20;96227.00;;;;8199619;28;20228;-80
2023/01/12 13:08:17;;;;;;;8.13;2.97;;;;;9.30;96222.00;;;;8218080;28;20258;-79
2023/01/12 13:12:31;;;;;;;4.60;1.80;;;;;9.40;96214.00;;;;8228077;28;20200;-80
2023/01/12 13:16:53;;;;;;;4.90;1.70;;;;;9.50;96234.00;;;;8229043;28;20301;-82
2023/01/12 13:20:58;;;;;;;7.67;2.40;;;;;9.60;96220.00;;;;8202151;28;20233;-77
2023/01/12 13:25:42;;;;;;;2.08;1.60;;;;;9.80;96212.00;;;;8210027;28;20192;-75
2023/01/12 13:30:16;;;;;;;5.50;1.50;;;;;9.90;96215.00;;;;8197033;29;20283;-75
2023/01/12 13:34:45;;;;;;;5.07;1.57;;;;;9.90;96210.00;;;;8197434;29;20568;-75
2023/01/12 13:39:07;;;;;;;3.33;1.40;;;;;9.80;96199.00;;;;8196609;29;20263;-75
2023/01/12 13:43:34;;;;;;;5.15;1.38;;;;;9.80;96207.00;;;;8197383;29;20225;-75
2023/01/12 13:48:43;;;;;;;3.88;2.40;;;;;9.80;96200.00;;;;8257773;28;20273;-75
2023/01/12 13:53:21;;;;;;;3.15;1.50;;;;;9.80;96190.00;;;;8266183;28;20194;-75
2023/01/12 13:58:23;;;;;;;4.28;1.65;;;;;9.80;96198.00;;;;8265060;28;20253;-75
2023/01/12 14:02:49;;;;;;;4.80;1.50;;;;;9.80;96197.00;;;;8271790;28;20211;-75
2023/01/12 14:17:56;;;;;;;2.53;1.30;;;;;9.80;96213.00;;;;8271184;28;20249;-75
2023/01/12 14:22:03;;;;;;;4.38;1.42;;;;;9.70;96195.00;;;;8271079;28;20682;-75
2023/01/12 14:26:15;;;;;;;5.32;1.40;;;;;9.70;96191.00;;;;8270764;28;20199;-75
2023/01/12 14:30:19;;;;;;;1.30;1.30;;;;;9.70;96204.00;;;;8270744;28;20198;-75
2023/01/12 14:34:30;;;;;;;1.30;1.20;;;;;9.70;96196.00;;;;8270381;28;20229;-75
2023/01/12 14:38:34;;;;;;;3.80;1.55;;;;;9.70;96186.00;;;;8270418;28;20199;-75
2023/01/12 14:47:07;;;;;;;4.18;1.20;;;;;9.70;96169.00;;;;8269745;28;20249;-75
2023/01/12 14:51:21;;;;;;;5.55;1.40;;;;;9.70;96182.00;;;;8270035;28;20239;-75
2023/01/12 14:55:38;;;;;;;1.52;1.42;;;;;9.70;96177.00;;;;8252639;28;20277;-75
2023/01/12 14:59:48;;;;;;;4.10;1.33;;;;;9.60;96182.00;;;;8270920;28;20195;-75
2023/01/12 15:03:53;;;;;;;2.80;1.25;;;;;9.60;96187.00;;;;8270320;28;20225;-75
2023/01/12 15:08:04;;;;;;;3.03;1.40;;;;;9.50;96195.00;;;;8269560;28;20199;-75
2023/01/12 15:12:42;;;;;;;7.03;4.00;;;;;9.50;96192.00;;;;8252724;28;20536;-75
2023/01/12 15:25:36;;;;;;;1.40;1.30;;;;;9.50;96197.00;;;;8254506;28;20231;-74
2023/01/12 15:29:41;;;;;;;2.65;1.33;;;;;9.40;96184.00;;;;8265862;28;20713;-75
2023/01/12 15:33:54;;;;;;;79.35;25.10;;;;;9.50;96184.00;;;;8249310;28;20245;-73
2023/01/12 15:38:00;;;;;;;106.93;66.63;;;;;9.50;96181.00;;;;8266783;28;20219;-73
2023/01/12 15:42:16;;;;;;;481.98;267.70;;;;;9.50;96188.00;;;;8266869;28;20241;-73
2023/01/12 15:46:29;;;;;;;276.05;155.60;;;;;9.50;96187.00;;;;8267814;28;20655;-73
2023/01/12 15:50:38;;;;;;;74.60;40.83;;;;;9.50;96195.00;;;;8250072;28;20537;-73
2023/01/12 15:54:41;;;;;;;70.85;47.13;;;;;9.50;96184.00;;;;8266074;28;20588;-73
2023/01/12 15:58:49;;;;;;;9.93;8.63;;;;;9.50;96200.00;;;;8267550;28;20306;-73
2023/01/12 16:02:55;;;;;;;936.92;575.35;;;;;9.50;96200.00;;;;8267806;28;20680;-73
2023/01/12 16:07:04;;;;;;;741.30;424.27;;;;;9.50;96206.00;;;;8267635;28;20227;-73
2023/01/12 16:11:16;;;;;;;27.50;23.38;;;;;9.40;96197.00;;;;8250082;28;20198;-73
2023/01/12 16:15:25;;;;;;;5.13;3.67;;;;;9.40;96200.00;;;;8249292;28;20220;-74
2023/01/12 16:19:30;;;;;;;73.13;60.78;;;;;9.30;96210.00;;;;8267422;28;20278;-74
2023/01/12 16:23:34;;;;;;;48.05;43.17;;;;;9.40;96215.00;;;;8266509;28;20209;-73
2023/01/12 16:27:37;;;;;;;19.50;14.48;;;;;9.40;96206.00;;;;8266992;28;20281;-74
2023/01/12 16:31:42;;;;;;;18.73;12.15;;;;;9.30;96206.00;;;;8267496;28;20593;-74
2023/01/12 16:35:45;;;;;;;71.22;63.88;;;;;9.40;96207.00;;;;8267823;28;20663;-74
2023/01/12 16:39:58;;;;;;;8.45;5.15;;;;;9.30;96201.00;;;;8266911;28;20221;-74
2023/01/12 16:44:01;;;;;;;3.47;1.92;;;;;9.30;96203.00;;;;8267694;28;20260;-74
2023/01/12 16:48:17;;;;;;;2.75;1.83;;;;;9.30;96196.00;;;;8266895;28;20199;-73
2023/01/12 16:52:21;;;;;;;2.07;1.63;;;;;9.30;96186.00;;;;8266508;28;20229;-73
2023/01/12 16:56:24;;;;;;;7.57;4.23;;;;;9.30;96187.00;;;;8264797;28;20241;-73
2023/01/12 17:00:28;;;;;;;8.50;6.88;;;;;9.40;96186.00;;;;8262083;28;20584;-73
2023/01/12 17:04:32;;;;;;;5.65;3.58;;;;;9.40;96183.00;;;;8261917;28;20222;-73
2023/01/12 17:08:37;;;;;;;3.40;1.30;;;;;9.40;96179.00;;;;8261610;28;20203;-73
2023/01/12 17:12:41;;;;;;;3.07;1.60;;;;;9.30;96171.00;;;;8261849;28;20616;-73
2023/01/12 17:17:03;;;;;;;2.45;1.45;;;;;9.30;96173.00;;;;8262076;28;20214;-73
2023/01/12 17:21:12;;;;;;;4.78;1.73;;;;;9.30;96179.00;;;;8261278;28;20194;-73
2023/01/12 17:25:18;;;;;;;4.13;1.70;;;;;9.30;96175.00;;;;8262995;28;20195;-73
2023/01/12 17:29:25;;;;;;;5.55;1.65;;;;;9.40;96171.00;;;;8261616;28;20195;-73
2023/01/12 17:33:29;;;;;;;2.20;1.58;;;;;9.40;96183.00;;;;8244567;28;20253;-73
2023/01/12 17:37:34;;;;;;;2.35;1.52;;;;;9.40;96175.00;;;;8267372;28;20261;-73
2023/01/12 17:46:03;;;;;;;2.65;1.45;;;;;9.40;96170.00;;;;8268582;28;20532;-73
2023/01/12 17:50:07;;;;;;;3.10;1.50;;;;;9.40;96162.00;;;;8267395;28;20260;-73
2023/01/12 17:54:14;;;;;;;2.60;1.30;;;;;9.40;96150.00;;;;8267337;28;20237;-73
2023/01/12 17:58:20;;;;;;;2.07;1.30;;;;;9.40;96152.00;;;;8267245;28;20227;-73
2023/01/12 18:02:26;;;;;;;2.60;1.30;;;;;9.40;96146.00;;;;8267217;28;20732;-73
2023/01/12 18:06:30;;;;;;;4.28;1.98;;;;;9.30;96142.00;;;;8266441;28;20187;-73
2023/01/12 18:10:34;;;;;;;3.70;1.60;;;;;9.30;96143.00;;;;8266750;28;20199;-73
2023/01/12 18:14:41;;;;;;;1.88;1.60;;;;;9.30;96135.00;;;;8266603;28;20688;-73
2023/01/12 18:18:47;;;;;;;4.33;1.60;;;;;9.30;96136.00;;;;8265558;28;20223;-73
2023/01/12 18:22:53;;;;;;;1.60;1.50;;;;;9.30;96130.00;;;;8265789;28;20620;-73
2023/01/12 18:26:59;;;;;;;3.03;1.50;;;;;9.30;96129.00;;;;8267055;28;20639;-73
2023/01/12 18:31:07;;;;;;;2.30;1.40;;;;;9.20;96121.00;;;;8248823;28;20637;-73
2023/01/12 18:35:12;;;;;;;1.97;1.60;;;;;9.20;96118.00;;;;8250355;28;20195;-73
2023/01/12 18:39:21;;;;;;;3.50;1.77;;;;;9.20;96129.00;;;;8270630;28;20226;-73
2023/01/12 18:43:28;;;;;;;1.60;1.50;;;;;9.20;96118.00;;;;8270252;28;20671;-73
2023/01/12 18:56:14;;;;;;;2.20;1.40;;;;;9.10;96108.00;;;;8269806;28;20229;-73
2023/01/12 19:00:22;;;;;;;1.45;1.35;;;;;9.10;96107.00;;;;8269978;28;20199;-73
2023/01/12 19:04:49;;;;;;;1.70;1.58;;;;;9.10;96119.00;;;;8268272;28;20280;-73
2023/01/12 19:17:37;;;;;;;1.67;1.52;;;;;9.10;96111.00;;;;8268870;28;20226;-72
2023/01/12 19:30:39;;;;;;;91.50;51.95;;;;;9.10;96104.00;;;;8247820;28;20210;-72
2023/01/12 19:34:44;;;;;;;9.27;6.53;;;;;9.10;96112.00;;;;8269682;28;20250;-72
2023/01/12 19:38:51;;;;;;;18.25;15.40;;;;;9.10;96108.00;;;;8269055;28;20230;-72
2023/01/12 19:43:20;;;;;;;3.60;1.92;;;;;9.00;96105.00;;;;8268289;28;20230;-72
2023/01/12 19:47:23;;;;;;;4.63;4.13;;;;;8.90;96101.00;;;;8268285;28;20257;-71
2023/01/12 19:51:32;;;;;;;6.05;2.30;;;;;8.90;96092.00;;;;8268477;28;20628;-72
2023/01/12 19:55:35;;;;;;;5.23;2.93;;;;;8.80;96093.00;;;;8266800;28;20199;-72
2023/01/12 19:59:38;;;;;;;6.50;2.43;;;;;8.90;96098.00;;;;8267651;28;20664;-73
2023/01/12 20:03:42;;;;;;;2.33;2.03;;;;;8.80;96093.00;;;;8267557;28;20249;-72
2023/01/12 20:07:46;;;;;;;13.73;3.73;;;;;8.80;96086.00;;;;8268320;28;20582;-73
2023/01/12 20:11:54;;;;;;;10.70;9.30;;;;;8.80;96085.00;;;;8267809;28;20257;-73
2023/01/12 20:15:57;;;;;;;11.70;10.07;;;;;8.80;96084.00;;;;8268390;28;20214;-73
2023/01/12 20:20:07;;;;;;;7.95;3.05;;;;;8.70;96086.00;;;;8266969;28;20259;-73
2023/01/12 20:24:12;;;;;;;4.10;3.10;;;;;8.70;96078.00;;;;8268095;28;20226;-72
2023/01/12 20:28:21;;;;;;;3.42;2.83;;;;;8.70;96076.00;;;;8265788;28;20579;-73
2023/01/12 20:32:24;;;;;;;2.80;1.80;;;;;8.70;96072.00;;;;8262458;28;20194;-73
2023/01/12 20:36:27;;;;;;;2.73;1.70;;;;;8.70;96075.00;;;;8266648;28;20211;-73
2023/01/12 20:40:32;;;;;;;2.80;1.60;;;;;8.60;96071.00;;;;8266197;28;20315;-73
2023/01/12 20:44:39;;;;;;;3.03;1.60;;;;;8.60;96072.00;;;;8265135;28;20202;-73
2023/01/12 20:48:45;;;;;;;3.30;1.53;;;;;8.50;96067.00;;;;8266519;28;20199;-73
2023/01/12 20:52:51;;;;;;;2.80;1.52;;;;;8.50;96065.00;;;;8261412;28;20564;-73
2023/01/12 20:57:00;;;;;;;2.87;1.47;;;;;8.50;96061.00;;;;8267194;28;20253;-71
2023/01/12 21:01:08;;;;;;;3.30;1.83;;;;;8.50;96054.00;;;;8266628;28;20264;-73
2023/01/12 21:05:14;;;;;;;4.93;1.70;;;;;8.40;96055.00;;;;8267256;28;20265;-72
2023/01/12 21:09:19;;;;;;;3.28;1.48;;;;;8.40;96059.00;;;;8270084;28;20281;-72
2023/01/12 21:13:26;;;;;;;4.40;1.87;;;;;8.40;96052.00;;;;8277821;28;20202;-72
2023/01/12 21:17:34;;;;;;;1.77;1.47;;;;;8.30;96044.00;;;;8277046;28;20218;-73
2023/01/12 21:21:41;;;;;;;6.93;1.73;;;;;8.40;96054.00;;;;8277111;28;20206;-72
2023/01/12 21:25:44;;;;;;;2.28;1.42;;;;;8.30;96042.00;;;;8277471;28;20516;-73
2023/01/12 21:29:55;;;;;;;3.60;1.73;;;;;8.30;96050.00;;;;8276611;28;20245;-73
2023/01/12 21:33:58;;;;;;;5.63;1.53;;;;;8.10;96047.00;;;;8276565;28;20206;-72
2023/01/12 21:38:01;;;;;;;5.53;1.53;;;;;8.10;96048.00;;;;8275772;28;20269;-72
2023/01/12 21:46:30;;;;;;;2.00;1.30;;;;;8.10;96043.00;;;;8276352;28;20198;-71
2023/01/12 21:50:36;;;;;;;1.57;1.37;;;;;8.00;96040.00;;;;8259299;28;20205;-72
2023/01/12 21:54:39;;;;;;;2.10;1.80;;;;;8.00;96044.00;;;;8275733;28;20194;-72
2023/01/12 21:58:44;;;;;;;2.65;2.00;;;;;8.00;96031.00;;;;8275452;28;20269;-72
2023/01/12 22:02:50;;;;;;;3.80;1.87;;;;;8.10;96032.00;;;;8276329;28;20226;-71
2023/01/12 22:06:54;;;;;;;4.27;1.90;;;;;8.20;96043.00;;;;8275818;28;20200;-71
2023/01/12 22:11:07;;;;;;;2.50;1.73;;;;;8.30;96040.00;;;;8277649;28;20190;-72
2023/01/12 22:15:12;;;;;;;5.33;1.97;;;;;8.40;96023.00;;;;8258546;28;20253;-72
2023/01/12 22:19:18;;;;;;;2.03;1.40;;;;;8.40;96025.00;;;;8276695;28;20222;-73
2023/01/12 22:23:24;;;;;;;5.20;1.57;;;;;8.40;96029.00;;;;8270248;28;20596;-73
2023/01/12 22:27:27;;;;;;;1.53;1.40;;;;;8.30;96024.00;;;;8254402;28;20544;-73
2023/01/12 22:31:32;;;;;;;3.07;1.57;;;;;8.20;96029.00;;;;8269937;28;20303;-73
2023/01/12 22:35:45;;;;;;;2.92;1.60;;;;;8.20;96016.00;;;;8271998;28;20183;-73